createdAt,value
2017-09-29T00:03:43.756Z,29
2017-09-29T00:13:43.636Z,33
2017-09-29T00:23:43.718Z,33
2017-09-29T00:33:43.626Z,31
2017-09-29T00:43:43.852Z,32
2017-09-29T00:53:43.704Z,36
2017-09-29T01:03:43.677Z,30
2017-09-29T01:13:43.769Z,31
2017-09-29T01:23:43.646Z,35
2017-09-29T01:33:43.664Z,32
2017-09-29T01:43:43.721Z,33
2017-09-29T01:53:43.654Z,29
2017-09-29T02:03:43.631Z,27
2017-09-29T02:14:09.104Z,31
2017-09-29T02:23:43.685Z,29
2017-09-29T02:33:43.751Z,37
2017-09-29T02:43:43.736Z,31
2017-09-29T02:53:43.687Z,31
2017-09-29T03:03:43.816Z,33
2017-09-29T03:13:43.683Z,41
2017-09-29T03:23:43.737Z,45
2017-09-29T03:33:43.748Z,44
2017-09-29T03:43:43.709Z,47
2017-09-29T03:53:43.760Z,43
2017-09-29T04:03:43.741Z,48
2017-09-29T04:13:43.764Z,52
2017-09-29T04:23:43.735Z,48
2017-09-29T04:33:43.639Z,47
2017-09-29T04:43:43.716Z,45
2017-09-29T04:53:43.719Z,44
2017-09-29T05:03:43.696Z,46
2017-09-29T05:13:43.729Z,46
2017-09-29T05:23:43.687Z,45
2017-09-29T05:33:43.761Z,48
2017-09-29T05:43:43.727Z,47
2017-09-29T05:53:47.021Z,40
2017-09-29T06:03:43.983Z,48
2017-09-29T06:13:45.280Z,48
2017-09-29T06:23:44.977Z,46
2017-09-29T06:33:43.784Z,45
2017-09-29T06:43:43.878Z,47
2017-09-29T06:53:43.650Z,41
2017-09-29T07:03:43.797Z,40
2017-09-29T07:13:43.746Z,35
2017-09-29T07:23:43.696Z,36
2017-09-29T07:33:43.772Z,33
2017-09-29T07:43:43.757Z,37
2017-09-29T07:53:43.772Z,34
2017-09-29T08:03:43.736Z,32
2017-09-29T08:13:43.715Z,31
2017-09-29T08:23:44.379Z,29
2017-09-29T08:33:43.842Z,25
2017-09-29T08:43:43.717Z,24
2017-09-29T08:53:43.821Z,22
2017-09-29T09:03:43.700Z,20
2017-09-29T09:13:43.768Z,20
2017-09-29T09:23:44.522Z,21
2017-09-29T09:33:43.902Z,20
2017-09-29T09:43:43.706Z,22
2017-09-29T09:53:43.742Z,22
2017-09-29T10:05:01.961Z,20
2017-09-29T10:14:52.469Z,19
2017-09-29T10:24:39.881Z,18
2017-09-29T10:35:05.947Z,17
2017-09-29T10:44:50.550Z,18
2017-09-29T10:54:57.116Z,20
2017-09-29T11:05:03.654Z,17
2017-09-29T11:14:56.437Z,20
2017-09-29T11:24:59.856Z,17
2017-09-29T11:34:29.204Z,19
2017-09-29T11:43:58.847Z,20
2017-09-29T11:54:35.767Z,18
2017-09-29T12:04:49.936Z,17
2017-09-29T12:14:30.546Z,19
2017-09-29T12:24:30.227Z,16
2017-09-29T12:34:38.408Z,16
2017-09-29T12:44:39.579Z,14
2017-09-29T12:54:48.860Z,12
2017-09-29T13:04:46.305Z,8
2017-09-29T13:15:06.497Z,8
2017-09-29T13:24:32.717Z,8
2017-09-29T13:35:03.998Z,8
2017-09-29T13:44:37.301Z,7
2017-09-29T13:54:36.727Z,6
2017-09-29T14:04:32.842Z,5
2017-09-29T14:14:44.597Z,5
2017-09-29T14:24:31.011Z,4
2017-09-29T14:34:10.212Z,6
2017-09-29T14:45:02.539Z,4
2017-09-29T14:54:10.018Z,4
2017-09-29T15:04:36.011Z,4
2017-09-29T15:14:52.004Z,5
2017-09-29T15:24:59.733Z,4
2017-09-29T15:34:49.667Z,3
2017-09-29T15:44:40.811Z,5
2017-09-29T15:54:51.316Z,4
2017-09-29T16:04:55.182Z,5
2017-09-29T16:14:51.695Z,6
2017-09-29T16:24:56.106Z,6
2017-09-29T16:34:59.851Z,5
2017-09-29T16:44:31.497Z,5
2017-09-29T16:55:01.786Z,8
2017-09-29T17:04:26.383Z,8
2017-09-29T17:15:09.048Z,7
2017-09-29T17:25:10.328Z,6
2017-09-29T17:35:01.073Z,6
2017-09-29T17:44:42.380Z,7
2017-09-29T17:55:09.233Z,8
2017-09-29T18:04:46.004Z,10
2017-09-29T18:14:36.980Z,9
2017-09-29T18:25:10.486Z,6
2017-09-29T18:35:05.452Z,7
2017-09-29T18:44:54.777Z,6
2017-09-29T18:55:05.220Z,8
2017-09-29T19:05:11.973Z,7
2017-09-29T19:15:00.019Z,8
2017-09-29T19:23:50.073Z,9
2017-09-29T19:33:44.353Z,8
2017-09-29T19:43:45.353Z,9
2017-09-29T19:53:46.392Z,7
2017-09-29T20:03:44.490Z,6
2017-09-29T20:13:44.401Z,15
2017-09-29T20:23:43.871Z,7
2017-09-29T20:33:43.793Z,6
2017-09-29T20:43:44.654Z,10
2017-09-29T20:53:43.880Z,7
2017-09-29T21:03:43.823Z,8
2017-09-29T21:13:43.851Z,8
2017-09-29T21:23:43.809Z,14
2017-09-29T21:33:44.278Z,8
2017-09-29T21:43:44.129Z,8
2017-09-29T21:53:44.080Z,8
2017-09-29T22:03:43.951Z,9
2017-09-29T22:13:44.623Z,10
2017-09-29T22:23:43.822Z,9
2017-09-29T22:33:44.031Z,16
2017-09-29T22:43:43.841Z,11
2017-09-29T22:53:44.077Z,10
2017-09-29T23:03:43.989Z,13
2017-09-29T23:13:43.877Z,12
2017-09-29T23:23:44.021Z,13
2017-09-29T23:33:44.650Z,13
2017-09-29T23:43:44.245Z,15
2017-09-29T23:53:44.482Z,15
